sensor_id;sensor_type;location;lat;lon;timestamp;temperature;humidity
33368;DHT22;19724;51.114;13.906;2023-02-01T00:01:43;4.40;99.90
33368;DHT22;19724;51.114;13.906;2023-02-01T00:04:09;4.40;99.90
33368;DHT22;19724;51.114;13.906;2023-02-01T00:06:34;4.30;99.90
33368;DHT22;19724;51.114;13.906;2023-02-01T00:09:00;4.40;99.90
33368;DHT22;19724;51.114;13.906;2023-02-01T00:11:25;4.30;99.90
33368;DHT22;19724;51.114;13.906;2023-02-01T00:13:51;4.40;99.90
33368;DHT22;19724;51.114;13.906;2023-02-01T00:16:22;4.20;99.90
33368;DHT22;19724;51.114;13.906;2023-02-01T00:18:50;4.30;99.90
33368;DHT22;19724;51.114;13.906;2023-02-01T00:21:18;4.20;99.90
33368;DHT22;19724;51.114;13.906;2023-02-01T00:23:43;4.20;99.90
33368;DHT22;19724;51.114;13.906;2023-02-01T00:26:23;4.30;99.90
33368;DHT22;19724;51.114;13.906;2023-02-01T00:28:50;4.30;99.90
33368;DHT22;19724;51.114;13.906;2023-02-01T00:31:16;4.30;99.90
33368;DHT22;19724;51.114;13.906;2023-02-01T00:33:41;4.20;99.90
33368;DHT22;19724;51.114;13.906;2023-02-01T00:36:07;4.20;99.90
33368;DHT22;19724;51.114;13.906;2023-02-01T00:38:36;4.30;99.90
33368;DHT22;19724;51.114;13.906;2023-02-01T00:41:06;4.20;99.90
33368;DHT22;19724;51.114;13.906;2023-02-01T00:43:33;4.30;99.90
33368;DHT22;19724;51.114;13.906;2023-02-01T00:45:59;4.20;99.90
33368;DHT22;19724;51.114;13.906;2023-02-01T00:48:25;4.30;99.90
33368;DHT22;19724;51.114;13.906;2023-02-01T00:50:51;4.20;99.90
33368;DHT22;19724;51.114;13.906;2023-02-01T00:53:16;4.30;99.90
33368;DHT22;19724;51.114;13.906;2023-02-01T00:55:51;4.30;99.90
33368;DHT22;19724;51.114;13.906;2023-02-01T00:58:16;4.30;99.90
33368;DHT22;19724;51.114;13.906;2023-02-01T01:00:42;4.30;99.90
33368;DHT22;19724;51.114;13.906;2023-02-01T01:03:07;4.40;99.90
33368;DHT22;19724;51.114;13.906;2023-02-01T01:05:47;4.40;99.90
33368;DHT22;19724;51.114;13.906;2023-02-01T01:08:16;4.40;99.90
33368;DHT22;19724;51.114;13.906;2023-02-01T01:10:42;4.40;99.90
33368;DHT22;19724;51.114;13.906;2023-02-01T01:13:08;4.30;99.90
33368;DHT22;19724;51.114;13.906;2023-02-01T01:15:38;4.30;99.90
33368;DHT22;19724;51.114;13.906;2023-02-01T01:18:04;4.30;99.90
33368;DHT22;19724;51.114;13.906;2023-02-01T01:20:30;4.30;99.90
33368;DHT22;19724;51.114;13.906;2023-02-01T01:22:55;4.30;99.90
33368;DHT22;19724;51.114;13.906;2023-02-01T01:25:21;4.40;99.90
33368;DHT22;19724;51.114;13.906;2023-02-01T01:27:47;4.30;99.90
33368;DHT22;19724;51.114;13.906;2023-02-01T01:30:13;4.20;99.90
33368;DHT22;19724;51.114;13.906;2023-02-01T01:32:38;4.20;99.90
33368;DHT22;19724;51.114;13.906;2023-02-01T01:35:04;4.20;99.90
33368;DHT22;19724;51.114;13.906;2023-02-01T01:37:30;4.20;99.90
33368;DHT22;19724;51.114;13.906;2023-02-01T01:39:55;4.10;99.90
33368;DHT22;19724;51.114;13.906;2023-02-01T01:42:21;4.20;99.90
33368;DHT22;19724;51.114;13.906;2023-02-01T01:47:44;4.30;99.90
33368;DHT22;19724;51.114;13.906;2023-02-01T01:50:14;4.20;99.90
33368;DHT22;19724;51.114;13.906;2023-02-01T01:52:43;4.30;99.90
33368;DHT22;19724;51.114;13.906;2023-02-01T01:55:11;4.30;99.90
33368;DHT22;19724;51.114;13.906;2023-02-01T01:57:40;4.30;99.90
33368;DHT22;19724;51.114;13.906;2023-02-01T02:00:12;4.30;99.90
33368;DHT22;19724;51.114;13.906;2023-02-01T02:02:39;4.30;99.90
33368;DHT22;19724;51.114;13.906;2023-02-01T02:05:06;4.30;99.90
33368;DHT22;19724;51.114;13.906;2023-02-01T02:07:36;4.40;99.90
33368;DHT22;19724;51.114;13.906;2023-02-01T02:10:08;4.30;99.90
33368;DHT22;19724;51.114;13.906;2023-02-01T02:12:38;4.40;99.90
33368;DHT22;19724;51.114;13.906;2023-02-01T02:15:05;4.40;99.90
33368;DHT22;19724;51.114;13.906;2023-02-01T02:18:11;4.30;99.90
33368;DHT22;19724;51.114;13.906;2023-02-01T02:20:51;4.40;99.90
33368;DHT22;19724;51.114;13.906;2023-02-01T02:23:38;4.40;99.90
33368;DHT22;19724;51.114;13.906;2023-02-01T02:26:26;4.40;99.90
33368;DHT22;19724;51.114;13.906;2023-02-01T02:29:29;4.40;99.90
33368;DHT22;19724;51.114;13.906;2023-02-01T02:35:20;4.40;99.90
33368;DHT22;19724;51.114;13.906;2023-02-01T02:38:02;4.30;99.90
33368;DHT22;19724;51.114;13.906;2023-02-01T02:43:13;4.30;99.90
33368;DHT22;19724;51.114;13.906;2023-02-01T02:46:25;4.40;99.90
33368;DHT22;19724;51.114;13.906;2023-02-01T02:49:26;4.40;99.90
33368;DHT22;19724;51.114;13.906;2023-02-01T02:52:24;4.40;99.90
33368;DHT22;19724;51.114;13.906;2023-02-01T02:55:08;4.40;99.90
33368;DHT22;19724;51.114;13.906;2023-02-01T02:57:40;4.40;99.90
33368;DHT22;19724;51.114;13.906;2023-02-01T03:00:30;4.30;99.90
33368;DHT22;19724;51.114;13.906;2023-02-01T03:03:15;4.30;99.90
33368;DHT22;19724;51.114;13.906;2023-02-01T03:05:59;4.20;99.90
33368;DHT22;19724;51.114;13.906;2023-02-01T03:08:27;4.30;99.90
33368;DHT22;19724;51.114;13.906;2023-02-01T03:11:06;4.20;99.90
33368;DHT22;19724;51.114;13.906;2023-02-01T03:16:22;4.30;99.90
33368;DHT22;19724;51.114;13.906;2023-02-01T03:19:19;4.20;99.90
33368;DHT22;19724;51.114;13.906;2023-02-01T03:21:55;4.20;99.90
33368;DHT22;19724;51.114;13.906;2023-02-01T03:30:22;4.30;99.90
33368;DHT22;19724;51.114;13.906;2023-02-01T03:32:51;4.30;99.90
33368;DHT22;19724;51.114;13.906;2023-02-01T03:35:36;4.30;99.90
33368;DHT22;19724;51.114;13.906;2023-02-01T03:38:45;4.30;99.90
33368;DHT22;19724;51.114;13.906;2023-02-01T03:41:24;4.30;99.90
33368;DHT22;19724;51.114;13.906;2023-02-01T03:43:59;4.20;99.90
33368;DHT22;19724;51.114;13.906;2023-02-01T03:46:35;4.30;99.90
33368;DHT22;19724;51.114;13.906;2023-02-01T03:49:05;4.40;99.90
33368;DHT22;19724;51.114;13.906;2023-02-01T03:51:32;4.30;99.90
33368;DHT22;19724;51.114;13.906;2023-02-01T03:53:59;4.40;99.90
33368;DHT22;19724;51.114;13.906;2023-02-01T03:56:27;4.40;99.90
33368;DHT22;19724;51.114;13.906;2023-02-01T03:58:55;4.40;99.90
33368;DHT22;19724;51.114;13.906;2023-02-01T04:01:28;4.40;99.90
33368;DHT22;19724;51.114;13.906;2023-02-01T04:03:54;4.40;99.90
33368;DHT22;19724;51.114;13.906;2023-02-01T04:06:19;4.40;99.90
33368;DHT22;19724;51.114;13.906;2023-02-01T04:08:45;4.40;99.90
33368;DHT22;19724;51.114;13.906;2023-02-01T04:11:10;4.40;99.90
33368;DHT22;19724;51.114;13.906;2023-02-01T04:13:36;4.50;99.90
33368;DHT22;19724;51.114;13.906;2023-02-01T04:16:01;4.30;99.90
33368;DHT22;19724;51.114;13.906;2023-02-01T04:18:27;4.50;99.90
33368;DHT22;19724;51.114;13.906;2023-02-01T04:20:52;4.40;99.90
33368;DHT22;19724;51.114;13.906;2023-02-01T04:23:18;4.50;99.90
33368;DHT22;19724;51.114;13.906;2023-02-01T04:25:43;4.50;99.90
33368;DHT22;19724;51.114;13.906;2023-02-01T04:28:09;4.50;99.90
33368;DHT22;19724;51.114;13.906;2023-02-01T04:30:34;4.40;99.90
33368;DHT22;19724;51.114;13.906;2023-02-01T04:33:00;4.40;99.90
33368;DHT22;19724;51.114;13.906;2023-02-01T04:35:25;4.50;99.90
33368;DHT22;19724;51.114;13.906;2023-02-01T04:37:51;4.50;99.90
33368;DHT22;19724;51.114;13.906;2023-02-01T04:40:16;4.40;99.90
33368;DHT22;19724;51.114;13.906;2023-02-01T04:42:42;4.40;99.90
33368;DHT22;19724;51.114;13.906;2023-02-01T04:45:07;4.40;99.90
33368;DHT22;19724;51.114;13.906;2023-02-01T04:47:34;4.40;99.90
33368;DHT22;19724;51.114;13.906;2023-02-01T04:49:59;4.40;99.90
33368;DHT22;19724;51.114;13.906;2023-02-01T04:52:25;4.40;99.90
33368;DHT22;19724;51.114;13.906;2023-02-01T04:54:51;4.40;99.90
33368;DHT22;19724;51.114;13.906;2023-02-01T04:57:19;4.40;99.90
33368;DHT22;19724;51.114;13.906;2023-02-01T04:59:45;4.40;99.90
33368;DHT22;19724;51.114;13.906;2023-02-01T05:02:10;4.40;99.90
33368;DHT22;19724;51.114;13.906;2023-02-01T05:04:36;4.40;99.90
33368;DHT22;19724;51.114;13.906;2023-02-01T05:07:01;4.40;99.90
33368;DHT22;19724;51.114;13.906;2023-02-01T05:09:27;4.40;99.90
33368;DHT22;19724;51.114;13.906;2023-02-01T05:11:52;4.40;99.90
33368;DHT22;19724;51.114;13.906;2023-02-01T05:14:36;4.40;99.90
33368;DHT22;19724;51.114;13.906;2023-02-01T05:17:02;4.40;99.90
33368;DHT22;19724;51.114;13.906;2023-02-01T05:19:27;4.40;99.90
33368;DHT22;19724;51.114;13.906;2023-02-01T05:21:53;4.40;99.90
33368;DHT22;19724;51.114;13.906;2023-02-01T05:24:19;4.40;99.90
33368;DHT22;19724;51.114;13.906;2023-02-01T05:26:46;4.50;99.90
33368;DHT22;19724;51.114;13.906;2023-02-01T05:29:12;4.40;99.90
33368;DHT22;19724;51.114;13.906;2023-02-01T05:31:38;4.50;99.90
33368;DHT22;19724;51.114;13.906;2023-02-01T05:34:05;4.50;99.90
33368;DHT22;19724;51.114;13.906;2023-02-01T05:36:31;4.50;99.90
33368;DHT22;19724;51.114;13.906;2023-02-01T05:38:57;4.40;99.90
33368;DHT22;19724;51.114;13.906;2023-02-01T05:41:23;4.40;99.90
33368;DHT22;19724;51.114;13.906;2023-02-01T05:43:48;4.40;99.90
33368;DHT22;19724;51.114;13.906;2023-02-01T05:46:14;4.50;99.90
33368;DHT22;19724;51.114;13.906;2023-02-01T05:48:40;4.50;99.90
33368;DHT22;19724;51.114;13.906;2023-02-01T05:51:06;4.50;99.90
33368;DHT22;19724;51.114;13.906;2023-02-01T05:53:32;4.50;99.90
33368;DHT22;19724;51.114;13.906;2023-02-01T05:55:57;4.50;99.90
33368;DHT22;19724;51.114;13.906;2023-02-01T05:58:23;4.50;99.90
33368;DHT22;19724;51.114;13.906;2023-02-01T06:00:48;4.50;99.90
33368;DHT22;19724;51.114;13.906;2023-02-01T06:03:14;4.50;99.90
33368;DHT22;19724;51.114;13.906;2023-02-01T06:05:40;4.50;99.90
33368;DHT22;19724;51.114;13.906;2023-02-01T06:08:08;4.50;99.90
33368;DHT22;19724;51.114;13.906;2023-02-01T06:10:34;4.50;99.90
33368;DHT22;19724;51.114;13.906;2023-02-01T06:12:59;4.50;99.90
33368;DHT22;19724;51.114;13.906;2023-02-01T06:15:25;4.50;99.90
33368;DHT22;19724;51.114;13.906;2023-02-01T06:17:50;4.40;99.90
33368;DHT22;19724;51.114;13.906;2023-02-01T06:20:16;4.40;99.90
33368;DHT22;19724;51.114;13.906;2023-02-01T06:22:42;4.30;99.90
33368;DHT22;19724;51.114;13.906;2023-02-01T06:25:09;4.30;99.90
33368;DHT22;19724;51.114;13.906;2023-02-01T06:27:35;4.20;99.90
33368;DHT22;19724;51.114;13.906;2023-02-01T06:30:03;4.20;99.90
33368;DHT22;19724;51.114;13.906;2023-02-01T06:32:28;4.20;99.90
33368;DHT22;19724;51.114;13.906;2023-02-01T06:34:54;4.20;99.90
33368;DHT22;19724;51.114;13.906;2023-02-01T06:37:21;4.10;99.90
33368;DHT22;19724;51.114;13.906;2023-02-01T06:39:47;4.10;99.90
33368;DHT22;19724;51.114;13.906;2023-02-01T06:42:13;4.10;99.90
33368;DHT22;19724;51.114;13.906;2023-02-01T06:44:38;4.20;99.90
33368;DHT22;19724;51.114;13.906;2023-02-01T06:47:04;4.10;99.90
33368;DHT22;19724;51.114;13.906;2023-02-01T06:49:30;4.00;99.90
33368;DHT22;19724;51.114;13.906;2023-02-01T06:51:55;4.10;99.90
33368;DHT22;19724;51.114;13.906;2023-02-01T06:54:21;4.10;99.90
33368;DHT22;19724;51.114;13.906;2023-02-01T06:56:46;4.20;99.90
33368;DHT22;19724;51.114;13.906;2023-02-01T06:59:12;4.20;99.90
33368;DHT22;19724;51.114;13.906;2023-02-01T07:01:38;4.20;99.90
33368;DHT22;19724;51.114;13.906;2023-02-01T07:04:03;4.20;99.90
33368;DHT22;19724;51.114;13.906;2023-02-01T07:06:29;4.30;99.90
33368;DHT22;19724;51.114;13.906;2023-02-01T07:08:54;4.30;99.90
33368;DHT22;19724;51.114;13.906;2023-02-01T07:11:21;4.30;99.90
33368;DHT22;19724;51.114;13.906;2023-02-01T07:13:48;4.30;99.90
33368;DHT22;19724;51.114;13.906;2023-02-01T07:16:16;4.30;99.90
33368;DHT22;19724;51.114;13.906;2023-02-01T07:18:42;4.30;99.90
33368;DHT22;19724;51.114;13.906;2023-02-01T07:21:07;4.40;99.90
33368;DHT22;19724;51.114;13.906;2023-02-01T07:23:33;4.30;99.90
33368;DHT22;19724;51.114;13.906;2023-02-01T07:26:01;4.30;99.90
33368;DHT22;19724;51.114;13.906;2023-02-01T07:28:29;4.30;99.90
33368;DHT22;19724;51.114;13.906;2023-02-01T07:30:54;4.20;99.90
33368;DHT22;19724;51.114;13.906;2023-02-01T07:33:22;4.20;99.90
33368;DHT22;19724;51.114;13.906;2023-02-01T07:35:49;4.10;99.90
33368;DHT22;19724;51.114;13.906;2023-02-01T07:38:15;4.10;99.90
33368;DHT22;19724;51.114;13.906;2023-02-01T07:40:41;4.00;99.90
33368;DHT22;19724;51.114;13.906;2023-02-01T07:43:07;3.90;99.90
33368;DHT22;19724;51.114;13.906;2023-02-01T07:45:34;3.90;99.90
33368;DHT22;19724;51.114;13.906;2023-02-01T07:47:59;3.80;99.90
33368;DHT22;19724;51.114;13.906;2023-02-01T07:50:25;3.80;99.90
33368;DHT22;19724;51.114;13.906;2023-02-01T07:52:50;3.80;99.90
33368;DHT22;19724;51.114;13.906;2023-02-01T07:55:16;3.80;99.90
33368;DHT22;19724;51.114;13.906;2023-02-01T07:57:41;3.70;99.90
33368;DHT22;19724;51.114;13.906;2023-02-01T08:00:08;3.70;99.90
33368;DHT22;19724;51.114;13.906;2023-02-01T08:02:53;3.70;99.90
33368;DHT22;19724;51.114;13.906;2023-02-01T08:05:19;3.70;99.90
33368;DHT22;19724;51.114;13.906;2023-02-01T08:07:48;3.80;99.90
33368;DHT22;19724;51.114;13.906;2023-02-01T08:10:15;3.70;99.90
33368;DHT22;19724;51.114;13.906;2023-02-01T08:12:40;3.80;99.90
33368;DHT22;19724;51.114;13.906;2023-02-01T08:15:06;3.70;99.90
33368;DHT22;19724;51.114;13.906;2023-02-01T08:17:32;3.80;99.90
33368;DHT22;19724;51.114;13.906;2023-02-01T08:19:57;3.80;99.90
33368;DHT22;19724;51.114;13.906;2023-02-01T08:22:23;3.80;99.90
33368;DHT22;19724;51.114;13.906;2023-02-01T08:24:49;3.80;99.90
33368;DHT22;19724;51.114;13.906;2023-02-01T08:27:14;3.80;99.90
33368;DHT22;19724;51.114;13.906;2023-02-01T08:29:40;3.80;99.90
33368;DHT22;19724;51.114;13.906;2023-02-01T08:32:05;3.80;99.90
33368;DHT22;19724;51.114;13.906;2023-02-01T08:34:31;3.80;99.90
33368;DHT22;19724;51.114;13.906;2023-02-01T08:36:56;3.80;99.90
33368;DHT22;19724;51.114;13.906;2023-02-01T08:39:28;3.80;99.90
33368;DHT22;19724;51.114;13.906;2023-02-01T08:41:53;3.80;99.90
33368;DHT22;19724;51.114;13.906;2023-02-01T08:44:37;3.70;99.90
33368;DHT22;19724;51.114;13.906;2023-02-01T08:47:04;3.70;99.90
33368;DHT22;19724;51.114;13.906;2023-02-01T08:49:29;3.70;99.90
33368;DHT22;19724;51.114;13.906;2023-02-01T08:51:55;3.60;99.90
33368;DHT22;19724;51.114;13.906;2023-02-01T08:54:21;3.70;99.90
33368;DHT22;19724;51.114;13.906;2023-02-01T08:56:47;3.70;99.90
33368;DHT22;19724;51.114;13.906;2023-02-01T08:59:12;3.70;99.90
33368;DHT22;19724;51.114;13.906;2023-02-01T09:01:38;3.70;99.90
33368;DHT22;19724;51.114;13.906;2023-02-01T09:04:03;3.70;99.90
33368;DHT22;19724;51.114;13.906;2023-02-01T09:06:29;3.70;99.90
33368;DHT22;19724;51.114;13.906;2023-02-01T09:08:55;3.90;99.90
33368;DHT22;19724;51.114;13.906;2023-02-01T09:11:21;4.00;99.90
33368;DHT22;19724;51.114;13.906;2023-02-01T09:13:47;4.10;99.90
33368;DHT22;19724;51.114;13.906;2023-02-01T09:16:14;4.10;99.90
33368;DHT22;19724;51.114;13.906;2023-02-01T09:18:40;4.20;99.90
33368;DHT22;19724;51.114;13.906;2023-02-01T09:21:06;4.20;99.90
33368;DHT22;19724;51.114;13.906;2023-02-01T09:23:33;4.30;99.90
33368;DHT22;19724;51.114;13.906;2023-02-01T09:26:00;4.30;99.90
33368;DHT22;19724;51.114;13.906;2023-02-01T09:28:26;4.30;99.90
33368;DHT22;19724;51.114;13.906;2023-02-01T09:30:59;4.40;99.90
33368;DHT22;19724;51.114;13.906;2023-02-01T09:33:26;4.40;99.90
33368;DHT22;19724;51.114;13.906;2023-02-01T09:35:56;4.40;99.90
33368;DHT22;19724;51.114;13.906;2023-02-01T09:38:23;4.50;99.90
33368;DHT22;19724;51.114;13.906;2023-02-01T09:40:50;4.50;99.90
33368;DHT22;19724;51.114;13.906;2023-02-01T09:43:51;4.60;99.90
33368;DHT22;19724;51.114;13.906;2023-02-01T09:46:28;4.60;99.90
33368;DHT22;19724;51.114;13.906;2023-02-01T09:48:56;4.60;99.90
33368;DHT22;19724;51.114;13.906;2023-02-01T09:51:38;4.60;99.90
33368;DHT22;19724;51.114;13.906;2023-02-01T09:54:24;4.50;99.90
33368;DHT22;19724;51.114;13.906;2023-02-01T09:57:14;4.50;99.90
33368;DHT22;19724;51.114;13.906;2023-02-01T09:59:46;4.40;99.90
33368;DHT22;19724;51.114;13.906;2023-02-01T10:02:21;4.20;99.90
33368;DHT22;19724;51.114;13.906;2023-02-01T10:04:49;4.10;99.90
33368;DHT22;19724;51.114;13.906;2023-02-01T10:07:30;4.00;99.90
33368;DHT22;19724;51.114;13.906;2023-02-01T10:10:15;3.90;99.90
33368;DHT22;19724;51.114;13.906;2023-02-01T10:12:52;3.80;99.90
33368;DHT22;19724;51.114;13.906;2023-02-01T10:15:37;3.80;99.90
33368;DHT22;19724;51.114;13.906;2023-02-01T10:18:27;3.70;99.90
33368;DHT22;19724;51.114;13.906;2023-02-01T10:23:52;3.50;99.90
33368;DHT22;19724;51.114;13.906;2023-02-01T10:26:30;3.50;99.90
33368;DHT22;19724;51.114;13.906;2023-02-01T10:29:03;3.50;99.90
33368;DHT22;19724;51.114;13.906;2023-02-01T10:31:34;3.50;99.90
33368;DHT22;19724;51.114;13.906;2023-02-01T10:34:23;3.40;99.90
33368;DHT22;19724;51.114;13.906;2023-02-01T10:36:55;3.50;99.90
33368;DHT22;19724;51.114;13.906;2023-02-01T10:39:22;3.50;99.90
33368;DHT22;19724;51.114;13.906;2023-02-01T10:41:48;3.50;99.90
33368;DHT22;19724;51.114;13.906;2023-02-01T10:44:20;3.40;99.90
33368;DHT22;19724;51.114;13.906;2023-02-01T10:46:48;3.40;99.90
33368;DHT22;19724;51.114;13.906;2023-02-01T10:49:32;3.50;99.90
33368;DHT22;19724;51.114;13.906;2023-02-01T10:52:12;3.40;99.90
33368;DHT22;19724;51.114;13.906;2023-02-01T10:54:41;3.50;99.90
33368;DHT22;19724;51.114;13.906;2023-02-01T10:59:50;3.50;99.90
33368;DHT22;19724;51.114;13.906;2023-02-01T11:02:25;3.50;99.90
33368;DHT22;19724;51.114;13.906;2023-02-01T11:05:00;3.60;99.90
33368;DHT22;19724;51.114;13.906;2023-02-01T11:07:26;3.60;99.90
33368;DHT22;19724;51.114;13.906;2023-02-01T11:09:53;3.60;99.90
33368;DHT22;19724;51.114;13.906;2023-02-01T11:17:45;3.80;99.90
33368;DHT22;19724;51.114;13.906;2023-02-01T11:22:58;3.90;99.90
33368;DHT22;19724;51.114;13.906;2023-02-01T11:25:24;3.90;99.90
33368;DHT22;19724;51.114;13.906;2023-02-01T11:27:51;3.90;99.90
33368;DHT22;19724;51.114;13.906;2023-02-01T11:30:42;4.00;99.90
33368;DHT22;19724;51.114;13.906;2023-02-01T11:33:14;4.10;99.90
33368;DHT22;19724;51.114;13.906;2023-02-01T11:35:41;4.10;99.90
33368;DHT22;19724;51.114;13.906;2023-02-01T11:38:28;4.20;99.90
33368;DHT22;19724;51.114;13.906;2023-02-01T11:40:54;4.20;99.90
33368;DHT22;19724;51.114;13.906;2023-02-01T11:43:28;4.30;99.90
33368;DHT22;19724;51.114;13.906;2023-02-01T11:46:02;4.20;99.90
33368;DHT22;19724;51.114;13.906;2023-02-01T11:48:31;4.20;99.90
33368;DHT22;19724;51.114;13.906;2023-02-01T11:53:57;4.30;99.90
33368;DHT22;19724;51.114;13.906;2023-02-01T11:56:37;4.30;99.90
33368;DHT22;19724;51.114;13.906;2023-02-01T11:59:14;4.30;99.90
33368;DHT22;19724;51.114;13.906;2023-02-01T12:04:55;4.30;99.90
33368;DHT22;19724;51.114;13.906;2023-02-01T12:10:39;4.20;99.90
33368;DHT22;19724;51.114;13.906;2023-02-01T12:16:10;4.10;99.90
33368;DHT22;19724;51.114;13.906;2023-02-01T12:21:51;4.00;99.90
33368;DHT22;19724;51.114;13.906;2023-02-01T12:30:33;4.20;99.90
33368;DHT22;19724;51.114;13.906;2023-02-01T12:33:32;4.20;99.90
33368;DHT22;19724;51.114;13.906;2023-02-01T12:38:48;4.30;99.90
33368;DHT22;19724;51.114;13.906;2023-02-01T12:41:19;4.30;99.90
33368;DHT22;19724;51.114;13.906;2023-02-01T12:44:19;4.40;99.90
33368;DHT22;19724;51.114;13.906;2023-02-01T12:46:52;4.40;99.90
33368;DHT22;19724;51.114;13.906;2023-02-01T12:49:37;4.50;99.90
33368;DHT22;19724;51.114;13.906;2023-02-01T12:52:14;4.40;99.90
33368;DHT22;19724;51.114;13.906;2023-02-01T12:54:57;4.40;99.90
33368;DHT22;19724;51.114;13.906;2023-02-01T12:57:32;4.50;99.90
33368;DHT22;19724;51.114;13.906;2023-02-01T13:00:31;4.50;99.90
33368;DHT22;19724;51.114;13.906;2023-02-01T13:03:25;4.50;99.90
33368;DHT22;19724;51.114;13.906;2023-02-01T13:06:03;4.50;99.90
33368;DHT22;19724;51.114;13.906;2023-02-01T13:11:29;4.50;99.90
33368;DHT22;19724;51.114;13.906;2023-02-01T13:14:01;4.50;99.90
33368;DHT22;19724;51.114;13.906;2023-02-01T13:16:35;4.50;99.90
33368;DHT22;19724;51.114;13.906;2023-02-01T13:19:19;4.50;99.90
33368;DHT22;19724;51.114;13.906;2023-02-01T13:21:49;4.50;99.90
33368;DHT22;19724;51.114;13.906;2023-02-01T13:24:42;4.50;99.90
33368;DHT22;19724;51.114;13.906;2023-02-01T13:27:14;4.60;99.90
33368;DHT22;19724;51.114;13.906;2023-02-01T13:29:56;4.60;99.90
33368;DHT22;19724;51.114;13.906;2023-02-01T13:32:56;4.60;99.90
33368;DHT22;19724;51.114;13.906;2023-02-01T13:43:23;4.70;99.90
33368;DHT22;19724;51.114;13.906;2023-02-01T13:45:55;4.70;99.90
33368;DHT22;19724;51.114;13.906;2023-02-01T13:48:29;4.80;99.90
33368;DHT22;19724;51.114;13.906;2023-02-01T13:50:57;4.80;99.90
33368;DHT22;19724;51.114;13.906;2023-02-01T13:53:29;4.80;99.90
33368;DHT22;19724;51.114;13.906;2023-02-01T13:56:00;4.80;99.90
33368;DHT22;19724;51.114;13.906;2023-02-01T14:01:35;4.90;99.90
33368;DHT22;19724;51.114;13.906;2023-02-01T14:04:05;4.90;99.90
33368;DHT22;19724;51.114;13.906;2023-02-01T14:09:17;5.00;99.90
33368;DHT22;19724;51.114;13.906;2023-02-01T14:19:36;5.00;99.90
33368;DHT22;19724;51.114;13.906;2023-02-01T14:24:51;5.00;99.90
33368;DHT22;19724;51.114;13.906;2023-02-01T14:27:22;5.00;99.90
33368;DHT22;19724;51.114;13.906;2023-02-01T14:30:02;5.00;99.90
33368;DHT22;19724;51.114;13.906;2023-02-01T14:32:36;5.00;99.90
33368;DHT22;19724;51.114;13.906;2023-02-01T14:35:07;5.00;99.90
33368;DHT22;19724;51.114;13.906;2023-02-01T14:37:38;5.00;99.90
33368;DHT22;19724;51.114;13.906;2023-02-01T15:00:57;5.10;99.90
33368;DHT22;19724;51.114;13.906;2023-02-01T15:06:42;5.10;99.90
33368;DHT22;19724;51.114;13.906;2023-02-01T15:09:20;5.10;99.90
33368;DHT22;19724;51.114;13.906;2023-02-01T15:14:43;5.10;99.90
33368;DHT22;19724;51.114;13.906;2023-02-01T15:17:20;5.10;99.90
33368;DHT22;19724;51.114;13.906;2023-02-01T15:19:59;5.10;99.90
33368;DHT22;19724;51.114;13.906;2023-02-01T15:22:28;5.10;99.90
33368;DHT22;19724;51.114;13.906;2023-02-01T15:24:59;5.20;99.90
33368;DHT22;19724;51.114;13.906;2023-02-01T15:27:29;5.10;99.90
33368;DHT22;19724;51.114;13.906;2023-02-01T15:29:54;5.00;99.90
33368;DHT22;19724;51.114;13.906;2023-02-01T15:32:35;5.00;99.90
33368;DHT22;19724;51.114;13.906;2023-02-01T15:35:01;4.90;99.90
33368;DHT22;19724;51.114;13.906;2023-02-01T15:37:28;4.80;99.90
33368;DHT22;19724;51.114;13.906;2023-02-01T15:42:54;4.70;99.90
33368;DHT22;19724;51.114;13.906;2023-02-01T15:45:21;4.70;99.90
33368;DHT22;19724;51.114;13.906;2023-02-01T15:47:49;4.60;99.90
33368;DHT22;19724;51.114;13.906;2023-02-01T15:50:17;4.60;99.90
33368;DHT22;19724;51.114;13.906;2023-02-01T15:52:47;4.50;99.90
33368;DHT22;19724;51.114;13.906;2023-02-01T15:55:30;4.50;99.90
33368;DHT22;19724;51.114;13.906;2023-02-01T15:57:58;4.50;99.90
33368;DHT22;19724;51.114;13.906;2023-02-01T16:00:30;4.50;99.90
33368;DHT22;19724;51.114;13.906;2023-02-01T16:03:15;4.50;99.90
33368;DHT22;19724;51.114;13.906;2023-02-01T16:05:55;4.50;99.90
33368;DHT22;19724;51.114;13.906;2023-02-01T16:08:23;4.50;99.90
33368;DHT22;19724;51.114;13.906;2023-02-01T16:10:52;4.50;99.90
33368;DHT22;19724;51.114;13.906;2023-02-01T16:13:19;4.50;99.90
33368;DHT22;19724;51.114;13.906;2023-02-01T16:15:46;4.60;99.90
33368;DHT22;19724;51.114;13.906;2023-02-01T16:18:13;4.60;99.90
33368;DHT22;19724;51.114;13.906;2023-02-01T16:20:41;4.50;99.90
33368;DHT22;19724;51.114;13.906;2023-02-01T16:23:08;4.60;99.90
33368;DHT22;19724;51.114;13.906;2023-02-01T16:25:34;4.50;99.90
33368;DHT22;19724;51.114;13.906;2023-02-01T16:27:59;4.50;99.90
33368;DHT22;19724;51.114;13.906;2023-02-01T16:30:25;4.50;99.90
33368;DHT22;19724;51.114;13.906;2023-02-01T16:32:55;4.50;99.90
33368;DHT22;19724;51.114;13.906;2023-02-01T16:35:42;4.50;99.90
33368;DHT22;19724;51.114;13.906;2023-02-01T16:38:12;4.50;99.90
33368;DHT22;19724;51.114;13.906;2023-02-01T16:40:39;4.50;99.90
33368;DHT22;19724;51.114;13.906;2023-02-01T16:43:15;4.40;99.90
33368;DHT22;19724;51.114;13.906;2023-02-01T16:45:41;4.40;99.90
33368;DHT22;19724;51.114;13.906;2023-02-01T16:48:22;4.30;99.90
33368;DHT22;19724;51.114;13.906;2023-02-01T16:50:54;4.20;99.90
33368;DHT22;19724;51.114;13.906;2023-02-01T16:53:21;4.10;99.90
33368;DHT22;19724;51.114;13.906;2023-02-01T16:55:47;4.00;99.90
33368;DHT22;19724;51.114;13.906;2023-02-01T16:58:15;3.90;99.90
33368;DHT22;19724;51.114;13.906;2023-02-01T17:00:41;3.80;99.90
33368;DHT22;19724;51.114;13.906;2023-02-01T17:03:06;3.70;99.90
33368;DHT22;19724;51.114;13.906;2023-02-01T17:05:33;3.60;99.90
33368;DHT22;19724;51.114;13.906;2023-02-01T17:08:02;3.40;99.90
33368;DHT22;19724;51.114;13.906;2023-02-01T17:10:30;3.30;99.90
33368;DHT22;19724;51.114;13.906;2023-02-01T17:12:56;3.20;99.90
33368;DHT22;19724;51.114;13.906;2023-02-01T17:15:23;3.10;99.90
33368;DHT22;19724;51.114;13.906;2023-02-01T17:17:50;3.00;99.90
33368;DHT22;19724;51.114;13.906;2023-02-01T17:20:22;2.90;99.90
33368;DHT22;19724;51.114;13.906;2023-02-01T17:22:48;2.80;99.90
33368;DHT22;19724;51.114;13.906;2023-02-01T17:25:19;2.70;99.90
33368;DHT22;19724;51.114;13.906;2023-02-01T17:27:46;2.70;99.90
33368;DHT22;19724;51.114;13.906;2023-02-01T17:30:13;2.70;99.90
33368;DHT22;19724;51.114;13.906;2023-02-01T17:32:39;2.60;99.90
33368;DHT22;19724;51.114;13.906;2023-02-01T17:35:21;2.60;99.90
33368;DHT22;19724;51.114;13.906;2023-02-01T17:37:47;2.60;99.90
33368;DHT22;19724;51.114;13.906;2023-02-01T17:40:13;2.60;99.90
33368;DHT22;19724;51.114;13.906;2023-02-01T17:42:39;2.60;99.90
33368;DHT22;19724;51.114;13.906;2023-02-01T17:45:26;2.60;99.90